KSLK/SLK METAR and TAF weather

Enter ICAO airport designator
Station Type Date Time Source
KSLK METAR 2019/04/25 11:51 UTC NOAA

KSLK 251151Z AUTO 25003KT 7SM BKN006 OVC009 02/02 A2991 RMK AO2 CIG 005V009 SLP143 70005 T00220017 10028 20022 51007


Station Type Date Time Source
KSLK Decoded METAR 2019/04/25 11:51 UTC NOAA

ADIRONDACK REGIONAL AIRPORT, NY, United States (KSLK) 44-24N 074-12W 498M
Apr 25, 2019 - 07:51 AM EDT / 2019.04.25 1151 UTC
Wind: from the WSW (250 degrees) at 3 MPH (3 KT):0
Visibility: 7 mile(s):0
Sky conditions: overcast
Temperature: 36.0 F (2.2 C)
Dew Point: 35.1 F (1.7 C)
Relative Humidity: 96%
Pressure (altimeter): 29.91 in. Hg (1012 hPa)
Pressure tendency: 0.02 inches (0.7 hPa) higher than three hours ago
ob: KSLK 251151Z AUTO 25003KT 7SM BKN006 OVC009 02/02 A2991 RMK AO2 CIG 005V009 SLP143 70005 T00220017 10028 20022 51007
cycle: 12

Station Type Date Time Source
KSLK TAF 2019/04/25 12:33 UTC NOAA

TAF KSLK 251131Z 2512/2612 VRB03KT P6SM OVC015
FM251400 VRB03KT P6SM BKN021
FM251600 VRB04KT P6SM SCT060
FM260600 VRB03KT P6SM VCSH SCT150
FM261000 VRB04KT 6SM -RA BR BKN040

Example: see airport list